sensor_id;sensor_type;location;lat;lon;timestamp;P1;durP1;ratioP1;P2;durP2;ratioP2
23250;SDS011;11794;49.730;10.088;2023-09-19T00:01:05;1.98;;;0.20;;
23250;SDS011;11794;49.730;10.088;2023-09-19T00:03:34;2.78;;;0.32;;
23250;SDS011;11794;49.730;10.088;2023-09-19T00:06:04;1.38;;;0.20;;
23250;SDS011;11794;49.730;10.088;2023-09-19T00:08:30;3.38;;;0.38;;
23250;SDS011;11794;49.730;10.088;2023-09-19T00:10:58;1.05;;;0.20;;
23250;SDS011;11794;49.730;10.088;2023-09-19T00:13:30;1.67;;;0.27;;
23250;SDS011;11794;49.730;10.088;2023-09-19T00:15:56;3.05;;;0.30;;
23250;SDS011;11794;49.730;10.088;2023-09-19T00:18:24;1.52;;;0.22;;
23250;SDS011;11794;49.730;10.088;2023-09-19T00:20:57;2.63;;;0.40;;
23250;SDS011;11794;49.730;10.088;2023-09-19T00:23:23;1.20;;;0.20;;
23250;SDS011;11794;49.730;10.088;2023-09-19T00:25:49;2.10;;;0.30;;
23250;SDS011;11794;49.730;10.088;2023-09-19T00:28:16;1.50;;;0.30;;
23250;SDS011;11794;49.730;10.088;2023-09-19T00:30:43;3.03;;;0.30;;
23250;SDS011;11794;49.730;10.088;2023-09-19T00:33:09;2.78;;;0.35;;
23250;SDS011;11794;49.730;10.088;2023-09-19T00:35:36;2.42;;;0.28;;
23250;SDS011;11794;49.730;10.088;2023-09-19T00:38:02;2.08;;;0.35;;
23250;SDS011;11794;49.730;10.088;2023-09-19T00:40:28;4.05;;;0.30;;
23250;SDS011;11794;49.730;10.088;2023-09-19T00:42:57;2.83;;;0.30;;
23250;SDS011;11794;49.730;10.088;2023-09-19T00:45:26;1.37;;;0.30;;
23250;SDS011;11794;49.730;10.088;2023-09-19T00:47:51;1.75;;;0.20;;
23250;SDS011;11794;49.730;10.088;2023-09-19T00:50:18;2.60;;;0.43;;
23250;SDS011;11794;49.730;10.088;2023-09-19T00:52:46;2.40;;;0.30;;
23250;SDS011;11794;49.730;10.088;2023-09-19T00:55:14;1.65;;;0.20;;
23250;SDS011;11794;49.730;10.088;2023-09-19T00:57:41;4.00;;;0.32;;
23250;SDS011;11794;49.730;10.088;2023-09-19T01:00:07;1.90;;;0.20;;
23250;SDS011;11794;49.730;10.088;2023-09-19T01:02:37;2.80;;;0.30;;
23250;SDS011;11794;49.730;10.088;2023-09-19T01:05:03;1.83;;;0.20;;
23250;SDS011;11794;49.730;10.088;2023-09-19T01:07:31;2.20;;;0.40;;
23250;SDS011;11794;49.730;10.088;2023-09-19T01:09:58;2.87;;;0.30;;
23250;SDS011;11794;49.730;10.088;2023-09-19T01:12:30;1.02;;;0.20;;
23250;SDS011;11794;49.730;10.088;2023-09-19T01:15:11;2.15;;;0.50;;
23250;SDS011;11794;49.730;10.088;2023-09-19T01:17:55;1.58;;;0.20;;
23250;SDS011;11794;49.730;10.088;2023-09-19T01:23:13;2.33;;;0.50;;
23250;SDS011;11794;49.730;10.088;2023-09-19T01:25:50;1.73;;;0.30;;
23250;SDS011;11794;49.730;10.088;2023-09-19T01:28:51;1.53;;;0.30;;
23250;SDS011;11794;49.730;10.088;2023-09-19T01:31:38;2.22;;;0.30;;
23250;SDS011;11794;49.730;10.088;2023-09-19T01:34:07;1.83;;;0.40;;
23250;SDS011;11794;49.730;10.088;2023-09-19T01:36:34;2.72;;;0.40;;
23250;SDS011;11794;49.730;10.088;2023-09-19T01:39:03;3.60;;;0.35;;
23250;SDS011;11794;49.730;10.088;2023-09-19T01:41:41;3.83;;;0.60;;
23250;SDS011;11794;49.730;10.088;2023-09-19T01:44:38;4.13;;;0.47;;
23250;SDS011;11794;49.730;10.088;2023-09-19T01:47:33;2.50;;;0.40;;
23250;SDS011;11794;49.730;10.088;2023-09-19T01:52:36;2.67;;;0.50;;
23250;SDS011;11794;49.730;10.088;2023-09-19T01:55:09;2.78;;;0.40;;
23250;SDS011;11794;49.730;10.088;2023-09-19T01:57:40;2.75;;;0.50;;
23250;SDS011;11794;49.730;10.088;2023-09-19T02:00:13;4.05;;;0.80;;
23250;SDS011;11794;49.730;10.088;2023-09-19T02:02:42;2.60;;;0.40;;
23250;SDS011;11794;49.730;10.088;2023-09-19T02:05:10;4.20;;;0.57;;
23250;SDS011;11794;49.730;10.088;2023-09-19T02:07:37;3.13;;;0.47;;
23250;SDS011;11794;49.730;10.088;2023-09-19T02:10:04;4.22;;;0.80;;
23250;SDS011;11794;49.730;10.088;2023-09-19T02:12:31;3.47;;;0.68;;
23250;SDS011;11794;49.730;10.088;2023-09-19T02:14:58;2.85;;;0.50;;
23250;SDS011;11794;49.730;10.088;2023-09-19T02:17:24;3.83;;;0.75;;
23250;SDS011;11794;49.730;10.088;2023-09-19T02:19:51;3.27;;;0.70;;
23250;SDS011;11794;49.730;10.088;2023-09-19T02:22:17;3.53;;;0.87;;
23250;SDS011;11794;49.730;10.088;2023-09-19T02:24:43;4.50;;;1.02;;
23250;SDS011;11794;49.730;10.088;2023-09-19T02:27:08;4.57;;;1.00;;
23250;SDS011;11794;49.730;10.088;2023-09-19T02:29:37;4.75;;;0.80;;
23250;SDS011;11794;49.730;10.088;2023-09-19T02:32:03;6.00;;;1.17;;
23250;SDS011;11794;49.730;10.088;2023-09-19T02:34:28;3.75;;;1.02;;
23250;SDS011;11794;49.730;10.088;2023-09-19T02:36:54;5.33;;;1.30;;
23250;SDS011;11794;49.730;10.088;2023-09-19T02:39:21;3.47;;;1.02;;
23250;SDS011;11794;49.730;10.088;2023-09-19T02:41:46;4.35;;;1.25;;
23250;SDS011;11794;49.730;10.088;2023-09-19T02:44:12;6.73;;;1.30;;
23250;SDS011;11794;49.730;10.088;2023-09-19T02:46:37;5.23;;;1.80;;
23250;SDS011;11794;49.730;10.088;2023-09-19T02:49:03;6.40;;;1.70;;
23250;SDS011;11794;49.730;10.088;2023-09-19T02:51:31;5.90;;;1.75;;
23250;SDS011;11794;49.730;10.088;2023-09-19T02:53:57;5.70;;;1.77;;
23250;SDS011;11794;49.730;10.088;2023-09-19T02:56:29;4.93;;;1.70;;
23250;SDS011;11794;49.730;10.088;2023-09-19T02:58:56;5.37;;;2.10;;
23250;SDS011;11794;49.730;10.088;2023-09-19T03:01:22;5.90;;;2.15;;
23250;SDS011;11794;49.730;10.088;2023-09-19T03:03:48;4.97;;;1.75;;
23250;SDS011;11794;49.730;10.088;2023-09-19T03:06:14;5.75;;;1.85;;
23250;SDS011;11794;49.730;10.088;2023-09-19T03:08:40;5.97;;;2.35;;
23250;SDS011;11794;49.730;10.088;2023-09-19T03:11:10;5.70;;;2.38;;
23250;SDS011;11794;49.730;10.088;2023-09-19T03:13:37;8.10;;;2.50;;
23250;SDS011;11794;49.730;10.088;2023-09-19T03:16:03;8.50;;;3.30;;
23250;SDS011;11794;49.730;10.088;2023-09-19T03:18:30;6.00;;;2.25;;
23250;SDS011;11794;49.730;10.088;2023-09-19T03:20:57;8.77;;;2.63;;
23250;SDS011;11794;49.730;10.088;2023-09-19T03:23:25;6.87;;;2.33;;
23250;SDS011;11794;49.730;10.088;2023-09-19T03:25:52;8.03;;;2.70;;
23250;SDS011;11794;49.730;10.088;2023-09-19T03:28:18;5.60;;;2.28;;
23250;SDS011;11794;49.730;10.088;2023-09-19T03:30:45;6.70;;;2.63;;
23250;SDS011;11794;49.730;10.088;2023-09-19T03:33:11;5.53;;;2.30;;
23250;SDS011;11794;49.730;10.088;2023-09-19T03:35:37;7.80;;;2.53;;
23250;SDS011;11794;49.730;10.088;2023-09-19T03:38:04;6.72;;;2.33;;
23250;SDS011;11794;49.730;10.088;2023-09-19T03:40:30;6.95;;;2.65;;
23250;SDS011;11794;49.730;10.088;2023-09-19T03:42:56;7.73;;;3.03;;
23250;SDS011;11794;49.730;10.088;2023-09-19T03:45:21;6.68;;;2.63;;
23250;SDS011;11794;49.730;10.088;2023-09-19T03:47:47;6.53;;;2.77;;
23250;SDS011;11794;49.730;10.088;2023-09-19T03:50:12;6.65;;;2.60;;
23250;SDS011;11794;49.730;10.088;2023-09-19T03:52:42;5.67;;;2.50;;
23250;SDS011;11794;49.730;10.088;2023-09-19T03:55:10;6.97;;;2.27;;
23250;SDS011;11794;49.730;10.088;2023-09-19T03:57:36;5.22;;;2.08;;
23250;SDS011;11794;49.730;10.088;2023-09-19T04:00:02;5.75;;;2.10;;
23250;SDS011;11794;49.730;10.088;2023-09-19T04:02:30;4.73;;;1.50;;
23250;SDS011;11794;49.730;10.088;2023-09-19T04:04:58;4.70;;;1.33;;
23250;SDS011;11794;49.730;10.088;2023-09-19T04:07:23;4.07;;;1.30;;
23250;SDS011;11794;49.730;10.088;2023-09-19T04:09:51;5.90;;;1.73;;
23250;SDS011;11794;49.730;10.088;2023-09-19T04:12:18;4.90;;;1.80;;
23250;SDS011;11794;49.730;10.088;2023-09-19T04:14:44;5.23;;;1.43;;
23250;SDS011;11794;49.730;10.088;2023-09-19T04:17:10;6.68;;;1.65;;
23250;SDS011;11794;49.730;10.088;2023-09-19T04:19:35;5.30;;;1.42;;
23250;SDS011;11794;49.730;10.088;2023-09-19T04:22:01;3.90;;;0.90;;
23250;SDS011;11794;49.730;10.088;2023-09-19T04:24:29;4.67;;;1.40;;
23250;SDS011;11794;49.730;10.088;2023-09-19T04:26:55;3.78;;;0.90;;
23250;SDS011;11794;49.730;10.088;2023-09-19T04:29:20;3.55;;;0.90;;
23250;SDS011;11794;49.730;10.088;2023-09-19T04:31:46;2.80;;;0.80;;
23250;SDS011;11794;49.730;10.088;2023-09-19T04:34:11;5.13;;;0.73;;
23250;SDS011;11794;49.730;10.088;2023-09-19T04:36:40;2.85;;;0.95;;
23250;SDS011;11794;49.730;10.088;2023-09-19T04:39:06;4.57;;;1.00;;
23250;SDS011;11794;49.730;10.088;2023-09-19T04:41:32;3.75;;;0.70;;
23250;SDS011;11794;49.730;10.088;2023-09-19T04:43:59;5.05;;;0.90;;
23250;SDS011;11794;49.730;10.088;2023-09-19T04:46:24;3.53;;;0.60;;
23250;SDS011;11794;49.730;10.088;2023-09-19T04:48:50;4.97;;;0.93;;
23250;SDS011;11794;49.730;10.088;2023-09-19T04:51:15;3.53;;;1.13;;
23250;SDS011;11794;49.730;10.088;2023-09-19T04:53:41;6.03;;;1.20;;
23250;SDS011;11794;49.730;10.088;2023-09-19T04:56:07;4.00;;;0.80;;
23250;SDS011;11794;49.730;10.088;2023-09-19T04:58:33;4.00;;;1.00;;
23250;SDS011;11794;49.730;10.088;2023-09-19T05:00:59;3.83;;;0.85;;
23250;SDS011;11794;49.730;10.088;2023-09-19T05:03:24;3.47;;;0.80;;
23250;SDS011;11794;49.730;10.088;2023-09-19T05:05:50;4.05;;;0.90;;
23250;SDS011;11794;49.730;10.088;2023-09-19T05:08:15;4.23;;;0.80;;
23250;SDS011;11794;49.730;10.088;2023-09-19T05:10:41;3.90;;;0.80;;
23250;SDS011;11794;49.730;10.088;2023-09-19T05:13:06;3.20;;;0.85;;
23250;SDS011;11794;49.730;10.088;2023-09-19T05:15:33;4.18;;;1.00;;
23250;SDS011;11794;49.730;10.088;2023-09-19T05:17:58;3.73;;;0.77;;
23250;SDS011;11794;49.730;10.088;2023-09-19T05:20:24;3.75;;;0.82;;
23250;SDS011;11794;49.730;10.088;2023-09-19T05:23:01;5.13;;;1.00;;
23250;SDS011;11794;49.730;10.088;2023-09-19T05:25:28;4.53;;;1.03;;
23250;SDS011;11794;49.730;10.088;2023-09-19T05:27:55;4.90;;;0.87;;
23250;SDS011;11794;49.730;10.088;2023-09-19T05:30:22;3.20;;;0.80;;
23250;SDS011;11794;49.730;10.088;2023-09-19T05:32:48;3.60;;;0.90;;
23250;SDS011;11794;49.730;10.088;2023-09-19T05:35:14;4.80;;;0.97;;
23250;SDS011;11794;49.730;10.088;2023-09-19T05:37:39;3.75;;;0.93;;
23250;SDS011;11794;49.730;10.088;2023-09-19T05:40:05;6.20;;;0.80;;
23250;SDS011;11794;49.730;10.088;2023-09-19T05:42:34;5.38;;;1.13;;
23250;SDS011;11794;49.730;10.088;2023-09-19T05:45:00;4.47;;;1.10;;
23250;SDS011;11794;49.730;10.088;2023-09-19T05:47:25;3.88;;;1.17;;
23250;SDS011;11794;49.730;10.088;2023-09-19T05:49:51;4.17;;;1.20;;
23250;SDS011;11794;49.730;10.088;2023-09-19T05:52:17;4.63;;;1.30;;
23250;SDS011;11794;49.730;10.088;2023-09-19T05:54:43;4.53;;;1.27;;
23250;SDS011;11794;49.730;10.088;2023-09-19T05:57:08;5.23;;;1.40;;
23250;SDS011;11794;49.730;10.088;2023-09-19T05:59:35;4.55;;;1.40;;
23250;SDS011;11794;49.730;10.088;2023-09-19T06:02:01;4.27;;;1.13;;
23250;SDS011;11794;49.730;10.088;2023-09-19T06:04:26;4.20;;;1.40;;
23250;SDS011;11794;49.730;10.088;2023-09-19T06:06:52;5.88;;;1.40;;
23250;SDS011;11794;49.730;10.088;2023-09-19T06:09:17;5.33;;;1.50;;
23250;SDS011;11794;49.730;10.088;2023-09-19T06:11:44;6.45;;;1.70;;
23250;SDS011;11794;49.730;10.088;2023-09-19T06:14:09;5.80;;;1.50;;
23250;SDS011;11794;49.730;10.088;2023-09-19T06:16:35;5.32;;;2.10;;
23250;SDS011;11794;49.730;10.088;2023-09-19T06:19:03;4.88;;;1.90;;
23250;SDS011;11794;49.730;10.088;2023-09-19T06:21:28;5.40;;;2.00;;
23250;SDS011;11794;49.730;10.088;2023-09-19T06:23:54;6.43;;;2.08;;
23250;SDS011;11794;49.730;10.088;2023-09-19T06:26:20;7.28;;;2.58;;
23250;SDS011;11794;49.730;10.088;2023-09-19T06:28:45;5.77;;;2.20;;
23250;SDS011;11794;49.730;10.088;2023-09-19T06:31:11;6.53;;;2.10;;
23250;SDS011;11794;49.730;10.088;2023-09-19T06:33:37;5.65;;;2.00;;
23250;SDS011;11794;49.730;10.088;2023-09-19T06:36:04;5.93;;;1.90;;
23250;SDS011;11794;49.730;10.088;2023-09-19T06:38:30;4.78;;;1.50;;
23250;SDS011;11794;49.730;10.088;2023-09-19T06:40:57;4.70;;;1.50;;
23250;SDS011;11794;49.730;10.088;2023-09-19T06:43:23;6.25;;;1.30;;
23250;SDS011;11794;49.730;10.088;2023-09-19T06:45:49;4.67;;;1.40;;
23250;SDS011;11794;49.730;10.088;2023-09-19T06:48:16;4.00;;;1.30;;
23250;SDS011;11794;49.730;10.088;2023-09-19T06:50:43;4.65;;;1.50;;
23250;SDS011;11794;49.730;10.088;2023-09-19T06:53:09;4.35;;;1.08;;
23250;SDS011;11794;49.730;10.088;2023-09-19T06:55:35;4.80;;;1.30;;
23250;SDS011;11794;49.730;10.088;2023-09-19T06:58:01;4.68;;;1.20;;
23250;SDS011;11794;49.730;10.088;2023-09-19T07:00:27;5.93;;;1.25;;
23250;SDS011;11794;49.730;10.088;2023-09-19T07:02:59;5.47;;;1.10;;
23250;SDS011;11794;49.730;10.088;2023-09-19T07:05:26;4.20;;;1.30;;
23250;SDS011;11794;49.730;10.088;2023-09-19T07:07:53;5.00;;;1.10;;
23250;SDS011;11794;49.730;10.088;2023-09-19T07:10:20;4.20;;;1.30;;
23250;SDS011;11794;49.730;10.088;2023-09-19T07:12:52;4.25;;;1.00;;
23250;SDS011;11794;49.730;10.088;2023-09-19T07:15:19;4.53;;;0.90;;
23250;SDS011;11794;49.730;10.088;2023-09-19T07:17:47;3.35;;;0.90;;
23250;SDS011;11794;49.730;10.088;2023-09-19T07:20:13;4.20;;;0.77;;
23250;SDS011;11794;49.730;10.088;2023-09-19T07:22:41;8.07;;;1.00;;
23250;SDS011;11794;49.730;10.088;2023-09-19T07:25:06;4.97;;;0.93;;
23250;SDS011;11794;49.730;10.088;2023-09-19T07:27:33;3.78;;;0.68;;
23250;SDS011;11794;49.730;10.088;2023-09-19T07:29:58;4.60;;;0.75;;
23250;SDS011;11794;49.730;10.088;2023-09-19T07:32:24;3.77;;;0.97;;
23250;SDS011;11794;49.730;10.088;2023-09-19T07:34:49;4.07;;;0.98;;
23250;SDS011;11794;49.730;10.088;2023-09-19T07:37:15;5.50;;;0.80;;
23250;SDS011;11794;49.730;10.088;2023-09-19T07:39:41;5.75;;;0.80;;
23250;SDS011;11794;49.730;10.088;2023-09-19T07:42:08;2.72;;;0.60;;
23250;SDS011;11794;49.730;10.088;2023-09-19T07:44:35;3.97;;;0.50;;
23250;SDS011;11794;49.730;10.088;2023-09-19T07:47:01;4.82;;;0.75;;
23250;SDS011;11794;49.730;10.088;2023-09-19T07:49:28;4.90;;;0.93;;
23250;SDS011;11794;49.730;10.088;2023-09-19T07:51:53;3.80;;;0.90;;
23250;SDS011;11794;49.730;10.088;2023-09-19T07:54:19;4.07;;;0.67;;
23250;SDS011;11794;49.730;10.088;2023-09-19T07:56:45;3.42;;;0.75;;
23250;SDS011;11794;49.730;10.088;2023-09-19T07:59:11;5.38;;;0.68;;
23250;SDS011;11794;49.730;10.088;2023-09-19T08:01:38;4.23;;;0.80;;
23250;SDS011;11794;49.730;10.088;2023-09-19T08:04:06;3.35;;;0.70;;
23250;SDS011;11794;49.730;10.088;2023-09-19T08:06:32;6.03;;;0.93;;
23250;SDS011;11794;49.730;10.088;2023-09-19T08:08:57;4.45;;;1.02;;
23250;SDS011;11794;49.730;10.088;2023-09-19T08:11:25;4.30;;;0.73;;
23250;SDS011;11794;49.730;10.088;2023-09-19T08:13:51;2.08;;;0.40;;
23250;SDS011;11794;49.730;10.088;2023-09-19T08:16:17;4.38;;;0.82;;
23250;SDS011;11794;49.730;10.088;2023-09-19T08:18:48;3.03;;;0.60;;
23250;SDS011;11794;49.730;10.088;2023-09-19T08:21:13;5.75;;;0.70;;
23250;SDS011;11794;49.730;10.088;2023-09-19T08:23:39;2.67;;;0.50;;
23250;SDS011;11794;49.730;10.088;2023-09-19T08:26:05;3.85;;;0.63;;
23250;SDS011;11794;49.730;10.088;2023-09-19T08:28:34;4.28;;;0.70;;
23250;SDS011;11794;49.730;10.088;2023-09-19T08:31:03;3.05;;;0.50;;
23250;SDS011;11794;49.730;10.088;2023-09-19T08:33:29;4.78;;;0.60;;
23250;SDS011;11794;49.730;10.088;2023-09-19T08:35:57;3.80;;;0.50;;
23250;SDS011;11794;49.730;10.088;2023-09-19T08:38:22;3.50;;;0.70;;
23250;SDS011;11794;49.730;10.088;2023-09-19T08:40:48;2.93;;;0.50;;
23250;SDS011;11794;49.730;10.088;2023-09-19T08:43:14;2.95;;;0.70;;
23250;SDS011;11794;49.730;10.088;2023-09-19T08:45:40;3.47;;;0.60;;
23250;SDS011;11794;49.730;10.088;2023-09-19T08:50:43;2.83;;;0.50;;
23250;SDS011;11794;49.730;10.088;2023-09-19T08:53:20;5.22;;;0.70;;
23250;SDS011;11794;49.730;10.088;2023-09-19T08:55:53;3.45;;;0.55;;
23250;SDS011;11794;49.730;10.088;2023-09-19T08:58:21;5.30;;;0.50;;
23250;SDS011;11794;49.730;10.088;2023-09-19T09:00:50;3.38;;;0.80;;
23250;SDS011;11794;49.730;10.088;2023-09-19T09:03:18;2.50;;;0.40;;
23250;SDS011;11794;49.730;10.088;2023-09-19T09:05:45;3.20;;;0.80;;
23250;SDS011;11794;49.730;10.088;2023-09-19T09:08:12;3.42;;;0.52;;
23250;SDS011;11794;49.730;10.088;2023-09-19T09:10:39;2.95;;;0.50;;
23250;SDS011;11794;49.730;10.088;2023-09-19T09:13:05;4.30;;;0.73;;
23250;SDS011;11794;49.730;10.088;2023-09-19T09:15:31;2.58;;;0.50;;
23250;SDS011;11794;49.730;10.088;2023-09-19T09:18:01;2.70;;;0.40;;
23250;SDS011;11794;49.730;10.088;2023-09-19T09:20:29;2.47;;;0.43;;
23250;SDS011;11794;49.730;10.088;2023-09-19T09:22:55;3.97;;;0.67;;
23250;SDS011;11794;49.730;10.088;2023-09-19T09:25:46;3.47;;;0.57;;
23250;SDS011;11794;49.730;10.088;2023-09-19T09:28:22;5.90;;;0.88;;
23250;SDS011;11794;49.730;10.088;2023-09-19T09:30:49;2.30;;;0.50;;
23250;SDS011;11794;49.730;10.088;2023-09-19T09:33:15;3.75;;;0.70;;
23250;SDS011;11794;49.730;10.088;2023-09-19T09:38:25;3.10;;;0.50;;
23250;SDS011;11794;49.730;10.088;2023-09-19T09:40:58;3.07;;;0.50;;
23250;SDS011;11794;49.730;10.088;2023-09-19T09:43:28;3.45;;;0.40;;
23250;SDS011;11794;49.730;10.088;2023-09-19T09:46:06;2.72;;;0.50;;
23250;SDS011;11794;49.730;10.088;2023-09-19T09:51:39;2.30;;;0.47;;
23250;SDS011;11794;49.730;10.088;2023-09-19T09:54:14;3.80;;;0.80;;
23250;SDS011;11794;49.730;10.088;2023-09-19T09:59:45;3.95;;;0.55;;
23250;SDS011;11794;49.730;10.088;2023-09-19T10:02:30;4.07;;;0.73;;
23250;SDS011;11794;49.730;10.088;2023-09-19T10:05:17;3.10;;;0.50;;
23250;SDS011;11794;49.730;10.088;2023-09-19T10:07:49;2.40;;;0.50;;
23250;SDS011;11794;49.730;10.088;2023-09-19T10:10:31;2.25;;;0.40;;
23250;SDS011;11794;49.730;10.088;2023-09-19T10:13:19;3.67;;;0.70;;
23250;SDS011;11794;49.730;10.088;2023-09-19T10:15:48;3.78;;;0.70;;
23250;SDS011;11794;49.730;10.088;2023-09-19T10:18:23;3.33;;;0.80;;
23250;SDS011;11794;49.730;10.088;2023-09-19T10:20:50;3.63;;;0.60;;
23250;SDS011;11794;49.730;10.088;2023-09-19T10:23:17;3.65;;;0.60;;
23250;SDS011;11794;49.730;10.088;2023-09-19T10:25:47;3.45;;;0.70;;
23250;SDS011;11794;49.730;10.088;2023-09-19T10:28:14;3.15;;;0.80;;
23250;SDS011;11794;49.730;10.088;2023-09-19T10:30:41;3.20;;;0.60;;
23250;SDS011;11794;49.730;10.088;2023-09-19T10:33:19;3.03;;;0.70;;
23250;SDS011;11794;49.730;10.088;2023-09-19T10:35:47;2.03;;;0.40;;
23250;SDS011;11794;49.730;10.088;2023-09-19T10:38:17;2.78;;;0.55;;
23250;SDS011;11794;49.730;10.088;2023-09-19T10:40:48;2.28;;;0.40;;
23250;SDS011;11794;49.730;10.088;2023-09-19T10:43:15;3.72;;;0.68;;
23250;SDS011;11794;49.730;10.088;2023-09-19T10:45:43;3.30;;;0.50;;
23250;SDS011;11794;49.730;10.088;2023-09-19T10:48:20;2.53;;;0.63;;
23250;SDS011;11794;49.730;10.088;2023-09-19T10:50:57;2.17;;;0.50;;
23250;SDS011;11794;49.730;10.088;2023-09-19T10:53:32;3.78;;;0.93;;
23250;SDS011;11794;49.730;10.088;2023-09-19T10:56:11;3.63;;;0.60;;
23250;SDS011;11794;49.730;10.088;2023-09-19T10:58:46;2.97;;;0.60;;
23250;SDS011;11794;49.730;10.088;2023-09-19T11:01:14;2.72;;;0.80;;
23250;SDS011;11794;49.730;10.088;2023-09-19T11:03:40;3.17;;;0.90;;
23250;SDS011;11794;49.730;10.088;2023-09-19T11:06:13;3.17;;;0.75;;
23250;SDS011;11794;49.730;10.088;2023-09-19T11:09:02;2.25;;;0.50;;
23250;SDS011;11794;49.730;10.088;2023-09-19T11:11:44;3.65;;;0.75;;
23250;SDS011;11794;49.730;10.088;2023-09-19T11:14:16;3.22;;;0.80;;
23250;SDS011;11794;49.730;10.088;2023-09-19T11:30:43;3.83;;;0.70;;
23250;SDS011;11794;49.730;10.088;2023-09-19T11:43:49;3.00;;;0.70;;
23250;SDS011;11794;49.730;10.088;2023-09-19T11:46:19;2.70;;;0.50;;
23250;SDS011;11794;49.730;10.088;2023-09-19T11:48:49;3.77;;;0.43;;
23250;SDS011;11794;49.730;10.088;2023-09-19T11:51:19;3.17;;;0.70;;
23250;SDS011;11794;49.730;10.088;2023-09-19T11:53:52;3.10;;;0.63;;
23250;SDS011;11794;49.730;10.088;2023-09-19T11:56:22;2.63;;;0.60;;
23250;SDS011;11794;49.730;10.088;2023-09-19T11:58:53;2.00;;;0.40;;
23250;SDS011;11794;49.730;10.088;2023-09-19T12:01:30;3.78;;;0.50;;
23250;SDS011;11794;49.730;10.088;2023-09-19T12:03:58;2.88;;;0.60;;
23250;SDS011;11794;49.730;10.088;2023-09-19T12:06:25;2.60;;;0.50;;
23250;SDS011;11794;49.730;10.088;2023-09-19T12:08:52;1.95;;;0.50;;
23250;SDS011;11794;49.730;10.088;2023-09-19T12:11:19;2.33;;;0.60;;
23250;SDS011;11794;49.730;10.088;2023-09-19T12:13:46;2.87;;;0.50;;
23250;SDS011;11794;49.730;10.088;2023-09-19T12:16:17;2.90;;;0.53;;
23250;SDS011;11794;49.730;10.088;2023-09-19T12:18:46;2.67;;;0.60;;
23250;SDS011;11794;49.730;10.088;2023-09-19T12:21:33;2.15;;;0.50;;
23250;SDS011;11794;49.730;10.088;2023-09-19T12:26:39;2.95;;;0.57;;
23250;SDS011;11794;49.730;10.088;2023-09-19T12:29:10;2.83;;;0.40;;
23250;SDS011;11794;49.730;10.088;2023-09-19T12:31:56;3.85;;;0.70;;
23250;SDS011;11794;49.730;10.088;2023-09-19T12:34:26;2.13;;;0.43;;
23250;SDS011;11794;49.730;10.088;2023-09-19T12:39:40;1.90;;;0.40;;
23250;SDS011;11794;49.730;10.088;2023-09-19T12:42:13;3.97;;;0.70;;
23250;SDS011;11794;49.730;10.088;2023-09-19T12:44:41;3.22;;;0.65;;
23250;SDS011;11794;49.730;10.088;2023-09-19T12:47:11;3.38;;;0.80;;
23250;SDS011;11794;49.730;10.088;2023-09-19T12:52:39;2.78;;;0.63;;
23250;SDS011;11794;49.730;10.088;2023-09-19T12:55:06;3.65;;;0.75;;
23250;SDS011;11794;49.730;10.088;2023-09-19T12:57:36;3.80;;;0.85;;
23250;SDS011;11794;49.730;10.088;2023-09-19T13:00:02;3.27;;;0.90;;
23250;SDS011;11794;49.730;10.088;2023-09-19T13:02:30;5.03;;;0.80;;
23250;SDS011;11794;49.730;10.088;2023-09-19T13:04:58;3.28;;;0.68;;
23250;SDS011;11794;49.730;10.088;2023-09-19T13:07:43;3.53;;;0.93;;
23250;SDS011;11794;49.730;10.088;2023-09-19T13:10:12;4.68;;;1.10;;
23250;SDS011;11794;49.730;10.088;2023-09-19T13:12:41;3.70;;;0.70;;
23250;SDS011;11794;49.730;10.088;2023-09-19T13:15:12;3.58;;;0.90;;
23250;SDS011;11794;49.730;10.088;2023-09-19T13:17:43;4.47;;;0.90;;
23250;SDS011;11794;49.730;10.088;2023-09-19T13:20:31;2.70;;;0.82;;
23250;SDS011;11794;49.730;10.088;2023-09-19T13:22:57;3.72;;;1.00;;
23250;SDS011;11794;49.730;10.088;2023-09-19T13:25:25;4.07;;;1.00;;
23250;SDS011;11794;49.730;10.088;2023-09-19T13:27:54;5.90;;;1.23;;
23250;SDS011;11794;49.730;10.088;2023-09-19T13:30:22;3.50;;;1.20;;
23250;SDS011;11794;49.730;10.088;2023-09-19T13:32:50;4.85;;;0.70;;
23250;SDS011;11794;49.730;10.088;2023-09-19T13:35:17;3.58;;;0.68;;
23250;SDS011;11794;49.730;10.088;2023-09-19T13:37:43;2.95;;;0.60;;
23250;SDS011;11794;49.730;10.088;2023-09-19T13:40:12;4.68;;;0.93;;
23250;SDS011;11794;49.730;10.088;2023-09-19T13:42:39;2.67;;;0.52;;
23250;SDS011;11794;49.730;10.088;2023-09-19T13:45:06;3.92;;;0.70;;
23250;SDS011;11794;49.730;10.088;2023-09-19T13:47:32;12.80;;;1.07;;
23250;SDS011;11794;49.730;10.088;2023-09-19T13:49:59;3.10;;;0.70;;
23250;SDS011;11794;49.730;10.088;2023-09-19T13:52:25;2.58;;;0.63;;
23250;SDS011;11794;49.730;10.088;2023-09-19T13:54:53;3.00;;;0.68;;
23250;SDS011;11794;49.730;10.088;2023-09-19T13:57:21;3.22;;;0.77;;
23250;SDS011;11794;49.730;10.088;2023-09-19T13:59:54;2.33;;;0.57;;
23250;SDS011;11794;49.730;10.088;2023-09-19T14:02:20;4.43;;;0.93;;
23250;SDS011;11794;49.730;10.088;2023-09-19T14:04:49;2.93;;;0.60;;
23250;SDS011;11794;49.730;10.088;2023-09-19T14:07:15;2.70;;;0.60;;
23250;SDS011;11794;49.730;10.088;2023-09-19T14:09:42;4.53;;;0.70;;
23250;SDS011;11794;49.730;10.088;2023-09-19T14:12:08;3.28;;;0.90;;
23250;SDS011;11794;49.730;10.088;2023-09-19T14:14:34;2.87;;;0.50;;
23250;SDS011;11794;49.730;10.088;2023-09-19T14:16:59;2.65;;;0.50;;
23250;SDS011;11794;49.730;10.088;2023-09-19T14:19:26;2.97;;;0.65;;
23250;SDS011;11794;49.730;10.088;2023-09-19T14:21:52;2.93;;;0.47;;
23250;SDS011;11794;49.730;10.088;2023-09-19T14:24:20;4.37;;;0.67;;
23250;SDS011;11794;49.730;10.088;2023-09-19T14:26:47;2.92;;;0.50;;
23250;SDS011;11794;49.730;10.088;2023-09-19T14:29:13;3.28;;;0.80;;
23250;SDS011;11794;49.730;10.088;2023-09-19T14:31:39;3.70;;;0.60;;
23250;SDS011;11794;49.730;10.088;2023-09-19T14:34:05;3.00;;;0.67;;
23250;SDS011;11794;49.730;10.088;2023-09-19T14:36:31;3.95;;;0.70;;
23250;SDS011;11794;49.730;10.088;2023-09-19T14:38:58;3.28;;;0.57;;
23250;SDS011;11794;49.730;10.088;2023-09-19T14:41:23;3.00;;;0.50;;
23250;SDS011;11794;49.730;10.088;2023-09-19T14:43:50;4.90;;;0.60;;
23250;SDS011;11794;49.730;10.088;2023-09-19T14:46:16;3.65;;;0.50;;
23250;SDS011;11794;49.730;10.088;2023-09-19T14:48:43;2.97;;;0.50;;
23250;SDS011;11794;49.730;10.088;2023-09-19T14:51:12;2.88;;;0.50;;
23250;SDS011;11794;49.730;10.088;2023-09-19T14:53:38;3.80;;;0.60;;
23250;SDS011;11794;49.730;10.088;2023-09-19T14:56:04;3.90;;;0.68;;
23250;SDS011;11794;49.730;10.088;2023-09-19T14:58:32;2.22;;;0.32;;
23250;SDS011;11794;49.730;10.088;2023-09-19T15:03:33;2.20;;;0.40;;
23250;SDS011;11794;49.730;10.088;2023-09-19T15:06:01;3.53;;;0.50;;
23250;SDS011;11794;49.730;10.088;2023-09-19T15:08:29;2.75;;;0.57;;
23250;SDS011;11794;49.730;10.088;2023-09-19T15:10:55;3.28;;;0.40;;
23250;SDS011;11794;49.730;10.088;2023-09-19T15:13:21;2.17;;;0.50;;
23250;SDS011;11794;49.730;10.088;2023-09-19T15:15:46;3.90;;;0.50;;
23250;SDS011;11794;49.730;10.088;2023-09-19T15:18:13;3.28;;;0.50;;
23250;SDS011;11794;49.730;10.088;2023-09-19T15:20:43;2.58;;;0.50;;
23250;SDS011;11794;49.730;10.088;2023-09-19T15:23:09;2.77;;;0.50;;
23250;SDS011;11794;49.730;10.088;2023-09-19T15:25:35;2.43;;;0.40;;
23250;SDS011;11794;49.730;10.088;2023-09-19T15:28:00;2.83;;;0.60;;
23250;SDS011;11794;49.730;10.088;2023-09-19T15:30:32;3.42;;;0.50;;
23250;SDS011;11794;49.730;10.088;2023-09-19T15:33:02;8.77;;;0.70;;